Time;durP1;ratioP1;P1;durP2;ratioP2;P2;SDS_P1;SDS_P2;PMS_P1;PMS_P2;Temp;Humidity;BMP_temperature;BMP_pressure;BME280_temperature;BME280_humidity;BME280_pressure;Samples;Min_cycle;Max_cycle;Signal;HPM_P1;HPM_P2
2023/12/14 00:01:29;;;;;;;43.03;27.75;;;10.10;99.90;;;;;;4989864;28;20069;-81
2023/12/14 00:03:57;;;;;;;43.63;27.98;;;10.20;99.90;;;;;;5005257;28;20069;-81
2023/12/14 00:06:26;;;;;;;35.45;23.33;;;10.30;99.90;;;;;;5002389;28;20124;-80
2023/12/14 00:08:53;;;;;;;34.10;21.10;;;10.40;99.90;;;;;;5000493;28;20038;-79
2023/12/14 00:11:21;;;;;;;34.03;23.50;;;10.40;99.90;;;;;;5001132;28;20051;-81
2023/12/14 00:13:49;;;;;;;37.40;25.27;;;10.30;99.90;;;;;;4998858;28;20069;-81
2023/12/14 00:16:16;;;;;;;40.22;25.95;;;10.30;99.90;;;;;;4998790;28;20038;-78
2023/12/14 00:18:44;;;;;;;31.23;22.58;;;10.40;99.90;;;;;;5000722;28;20070;-78
2023/12/14 00:21:11;;;;;;;30.33;19.38;;;10.50;99.90;;;;;;4999333;28;20502;-80
2023/12/14 00:23:42;;;;;;;28.98;20.25;;;10.50;99.90;;;;;;4998492;28;20041;-78
2023/12/14 00:26:10;;;;;;;51.88;34.55;;;10.40;99.90;;;;;;4999639;28;20046;-78
2023/12/14 00:28:38;;;;;;;56.55;37.47;;;10.30;99.90;;;;;;5001192;28;20495;-78
2023/12/14 00:31:06;;;;;;;70.82;44.30;;;10.30;99.90;;;;;;5001225;28;20045;-78
2023/12/14 00:33:36;;;;;;;57.17;39.90;;;10.20;99.90;;;;;;4986511;28;20046;-80
2023/12/14 00:36:04;;;;;;;62.03;42.25;;;10.20;99.90;;;;;;4980426;28;20080;-80
2023/12/14 00:38:32;;;;;;;55.15;40.42;;;10.20;99.90;;;;;;4998472;28;20100;-81
2023/12/14 00:41:01;;;;;;;53.15;40.97;;;10.20;99.90;;;;;;4999466;28;20057;-80
2023/12/14 00:43:28;;;;;;;76.20;45.58;;;10.20;99.90;;;;;;4998652;28;20049;-80
2023/12/14 00:45:56;;;;;;;54.35;40.40;;;10.20;99.90;;;;;;5000762;28;20041;-78
2023/12/14 00:48:23;;;;;;;56.20;40.00;;;10.00;99.90;;;;;;5008377;28;20034;-79
2023/12/14 00:50:51;;;;;;;78.38;45.33;;;9.90;99.90;;;;;;4999181;28;20068;-80
2023/12/14 00:53:19;;;;;;;64.30;42.22;;;9.90;99.90;;;;;;5002503;28;20112;-80
2023/12/14 00:55:46;;;;;;;55.10;38.30;;;10.10;99.90;;;;;;5004217;28;20046;-77
2023/12/14 00:58:15;;;;;;;42.92;28.05;;;10.10;99.90;;;;;;5003904;28;20077;-79
2023/12/14 01:00:43;;;;;;;25.88;18.73;;;10.10;99.90;;;;;;5003264;28;20073;-80
2023/12/14 01:03:10;;;;;;;37.97;24.15;;;10.10;99.90;;;;;;5003524;28;20272;-80
2023/12/14 01:05:38;;;;;;;34.20;21.38;;;10.00;99.90;;;;;;5002817;28;20501;-79
2023/12/14 01:08:06;;;;;;;30.23;20.65;;;9.90;99.90;;;;;;5002447;28;20530;-79
2023/12/14 01:10:33;;;;;;;26.65;16.95;;;10.00;99.90;;;;;;5011214;28;20038;-81
2023/12/14 01:13:01;;;;;;;21.50;14.43;;;10.00;99.90;;;;;;5013516;28;20069;-81
2023/12/14 01:15:30;;;;;;;21.10;13.45;;;10.00;99.90;;;;;;5004794;28;20041;-80
2023/12/14 01:17:57;;;;;;;17.83;13.07;;;9.80;99.90;;;;;;4985342;28;20470;-82
2023/12/14 01:20:25;;;;;;;19.60;12.95;;;9.70;99.90;;;;;;4983452;28;20092;-78
2023/12/14 01:22:53;;;;;;;22.65;14.55;;;9.70;99.90;;;;;;5001656;28;20050;-78
2023/12/14 01:25:20;;;;;;;22.33;16.25;;;9.60;99.90;;;;;;5002935;28;20104;-80
2023/12/14 01:27:48;;;;;;;20.17;14.93;;;9.60;99.90;;;;;;5001952;28;20062;-77
2023/12/14 01:30:16;;;;;;;23.58;16.45;;;9.70;99.90;;;;;;5000170;28;20038;-79
2023/12/14 01:32:45;;;;;;;32.72;20.88;;;9.70;99.90;;;;;;5002603;28;20038;-79
2023/12/14 01:35:12;;;;;;;30.10;22.52;;;9.70;99.90;;;;;;5001384;28;20035;-78
2023/12/14 01:37:40;;;;;;;30.60;22.25;;;9.50;99.90;;;;;;5003037;28;20450;-80
2023/12/14 01:40:09;;;;;;;27.52;19.98;;;9.50;99.90;;;;;;5001578;28;20073;-78
2023/12/14 01:42:36;;;;;;;25.50;17.60;;;9.60;99.90;;;;;;5001844;28;20076;-78
2023/12/14 01:45:25;;;;;;;28.45;17.67;;;9.60;99.90;;;;;;5003765;28;20043;-79
2023/12/14 01:47:54;;;;;;;28.48;17.85;;;9.70;99.90;;;;;;4952395;29;20057;-75
2023/12/14 01:50:22;;;;;;;26.83;17.95;;;9.60;99.90;;;;;;4957205;29;20669;-77
2023/12/14 01:52:50;;;;;;;26.70;17.25;;;9.60;99.90;;;;;;4937559;29;20032;-75
2023/12/14 01:55:17;;;;;;;33.28;18.55;;;9.60;99.90;;;;;;4956752;29;20039;-76
2023/12/14 01:57:45;;;;;;;34.88;17.60;;;9.60;99.90;;;;;;4962125;29;20101;-74
2023/12/14 02:00:22;;;;;;;69.05;44.95;;;9.60;99.90;;;;;;4962912;29;20039;-74
2023/12/14 02:02:50;;;;;;;62.28;34.78;;;9.70;99.90;;;;;;4959878;28;20071;-78
2023/12/14 02:05:19;;;;;;;33.63;17.38;;;9.70;99.90;;;;;;4954427;29;20043;-77
2023/12/14 02:07:46;;;;;;;37.15;17.27;;;9.60;99.90;;;;;;4953577;29;20048;-76
2023/12/14 02:10:14;;;;;;;28.63;16.15;;;9.60;99.90;;;;;;4936733;29;20048;-76
2023/12/14 02:12:41;;;;;;;26.27;15.20;;;9.50;99.90;;;;;;4937442;29;20070;-75
2023/12/14 02:15:10;;;;;;;28.02;15.98;;;9.40;99.90;;;;;;4951287;29;20051;-77
2023/12/14 02:17:37;;;;;;;42.95;18.02;;;9.40;99.90;;;;;;4951886;29;20039;-78
2023/12/14 02:20:06;;;;;;;27.17;15.77;;;9.50;99.90;;;;;;4936285;29;20090;-77
2023/12/14 02:22:50;;;;;;;18.58;10.93;;;9.50;99.90;;;;;;4936735;29;20058;-79
2023/12/14 02:25:18;;;;;;;19.33;11.50;;;9.70;99.90;;;;;;4954167;29;20078;-76
2023/12/14 02:27:46;;;;;;;18.40;9.68;;;9.70;99.90;;;;;;4937002;29;20051;-76
2023/12/14 02:30:14;;;;;;;15.05;7.45;;;9.80;99.90;;;;;;4937311;29;20051;-78
2023/12/14 02:32:42;;;;;;;13.57;7.70;;;9.70;99.90;;;;;;4936360;29;20050;-79
2023/12/14 02:35:10;;;;;;;16.23;7.72;;;9.70;99.90;;;;;;4936701;29;20047;-79
2023/12/14 02:37:40;;;;;;;30.17;12.57;;;9.70;99.90;;;;;;4953745;29;20098;-81
2023/12/14 02:40:08;;;;;;;24.45;15.77;;;9.60;99.90;;;;;;4936866;29;20039;-79
2023/12/14 02:42:36;;;;;;;34.10;23.13;;;9.50;99.90;;;;;;4953460;29;20102;-78
2023/12/14 02:45:04;;;;;;;30.65;20.40;;;9.30;99.90;;;;;;4932411;29;20043;-78
2023/12/14 02:47:32;;;;;;;29.70;19.33;;;9.20;99.90;;;;;;4935387;29;20062;-78
2023/12/14 02:49:59;;;;;;;33.17;20.00;;;9.30;99.90;;;;;;4936345;29;20467;-75
2023/12/14 02:52:27;;;;;;;28.63;18.85;;;9.30;99.90;;;;;;4936314;29;20094;-78
2023/12/14 02:54:56;;;;;;;18.95;13.23;;;9.50;99.90;;;;;;4951055;29;20159;-78
2023/12/14 02:57:24;;;;;;;16.10;10.35;;;9.50;99.90;;;;;;4936460;29;20047;-76
2023/12/14 02:59:51;;;;;;;23.95;14.93;;;9.50;99.90;;;;;;4941948;29;20114;-74
2023/12/14 03:02:19;;;;;;;15.02;8.98;;;9.50;99.90;;;;;;4955293;29;20073;-74
2023/12/14 03:04:46;;;;;;;16.65;8.80;;;9.60;99.90;;;;;;4955857;29;20103;-77
2023/12/14 03:07:14;;;;;;;13.93;9.15;;;9.60;99.90;;;;;;4949990;29;20071;-79
2023/12/14 03:09:44;;;;;;;15.60;10.38;;;9.70;99.90;;;;;;4950840;29;20062;-79
2023/12/14 03:12:13;;;;;;;20.67;11.18;;;9.80;99.90;;;;;;4952689;29;20098;-78
2023/12/14 03:14:41;;;;;;;18.35;11.70;;;9.80;99.90;;;;;;4934872;29;20533;-78
2023/12/14 03:17:12;;;;;;;15.68;10.10;;;9.80;99.90;;;;;;4952008;29;20050;-77
2023/12/14 03:19:41;;;;;;;25.38;14.30;;;9.50;99.90;;;;;;4958901;28;20064;-80
2023/12/14 03:22:09;;;;;;;21.70;14.90;;;9.40;99.90;;;;;;4959196;28;20034;-78
2023/12/14 03:24:37;;;;;;;23.50;16.20;;;9.30;99.90;;;;;;4963987;29;20052;-75
2023/12/14 03:27:05;;;;;;;21.38;14.73;;;9.50;99.90;;;;;;4952286;29;20039;-77
2023/12/14 03:29:34;;;;;;;20.75;14.20;;;9.60;99.90;;;;;;4952692;29;20062;-75
2023/12/14 03:32:10;;;;;;;20.80;15.30;;;9.70;99.90;;;;;;4952436;29;20050;-74
2023/12/14 03:34:39;;;;;;;15.57;11.50;;;9.70;99.90;;;;;;4935750;29;20055;-76
2023/12/14 03:37:07;;;;;;;16.63;10.52;;;9.60;99.90;;;;;;4964537;29;20031;-76
2023/12/14 03:39:34;;;;;;;15.57;9.52;;;9.50;99.90;;;;;;4959849;28;20043;-78
2023/12/14 03:42:02;;;;;;;17.85;9.73;;;9.40;99.90;;;;;;4946871;28;20043;-79
2023/12/14 03:44:29;;;;;;;14.93;8.45;;;9.50;99.90;;;;;;4955381;29;20685;-79
2023/12/14 03:46:59;;;;;;;18.85;10.57;;;9.50;99.90;;;;;;4953238;29;20049;-78
2023/12/14 03:49:30;;;;;;;17.77;11.82;;;9.50;99.90;;;;;;4936697;29;20142;-78
2023/12/14 03:51:57;;;;;;;20.45;13.32;;;9.50;99.90;;;;;;4953362;29;20042;-76
2023/12/14 03:54:25;;;;;;;21.27;13.98;;;9.50;99.90;;;;;;4952368;29;20062;-78
2023/12/14 03:56:54;;;;;;;22.42;14.82;;;9.40;99.90;;;;;;4949592;29;20677;-78
2023/12/14 03:59:21;;;;;;;27.67;15.02;;;9.30;99.90;;;;;;4951390;29;20047;-76
2023/12/14 04:01:49;;;;;;;21.95;13.68;;;9.30;99.90;;;;;;4951401;29;20047;-79
2023/12/14 04:04:18;;;;;;;15.40;10.38;;;9.30;99.90;;;;;;4949847;29;20047;-80
2023/12/14 04:06:45;;;;;;;16.35;9.75;;;9.30;99.90;;;;;;4949799;29;20074;-77
2023/12/14 04:09:13;;;;;;;14.30;8.65;;;9.30;99.90;;;;;;4953102;29;20035;-78
2023/12/14 04:11:40;;;;;;;10.95;7.13;;;9.20;99.90;;;;;;4951233;29;20070;-76
2023/12/14 04:14:09;;;;;;;14.23;9.63;;;9.30;99.90;;;;;;4935276;29;20385;-78
2023/12/14 04:16:37;;;;;;;14.95;8.45;;;9.40;99.90;;;;;;4932546;29;20488;-76
2023/12/14 04:19:09;;;;;;;17.33;11.10;;;9.50;99.90;;;;;;4953240;29;20075;-78
2023/12/14 04:21:38;;;;;;;18.95;12.35;;;9.60;99.90;;;;;;4950596;29;20042;-77
2023/12/14 04:24:07;;;;;;;15.43;9.32;;;9.70;99.90;;;;;;4952365;29;20432;-78
2023/12/14 04:26:34;;;;;;;14.88;8.38;;;9.70;99.90;;;;;;4954019;28;20047;-75
2023/12/14 04:29:02;;;;;;;8.27;4.78;;;9.40;99.90;;;;;;4938233;29;20047;-79
2023/12/14 04:31:29;;;;;;;7.68;4.47;;;9.30;99.90;;;;;;4936517;29;20114;-80
2023/12/14 04:33:57;;;;;;;11.63;7.15;;;9.30;99.90;;;;;;4952570;29;20403;-75
2023/12/14 04:36:24;;;;;;;12.68;7.05;;;9.40;99.90;;;;;;4939559;29;20047;-74
2023/12/14 04:38:53;;;;;;;14.20;7.90;;;9.60;99.90;;;;;;4940893;29;20052;-77
2023/12/14 04:41:21;;;;;;;13.25;7.95;;;9.70;99.90;;;;;;4954183;29;20146;-76
2023/12/14 04:43:48;;;;;;;12.70;7.50;;;9.80;99.90;;;;;;4936632;29;20487;-76
2023/12/14 04:46:16;;;;;;;15.43;10.65;;;9.80;99.90;;;;;;4956580;29;20062;-79
2023/12/14 04:48:43;;;;;;;15.30;10.65;;;9.70;99.90;;;;;;4939167;29;20104;-78
2023/12/14 04:51:14;;;;;;;14.68;8.82;;;9.70;99.90;;;;;;4944227;29;20051;-76
2023/12/14 04:53:41;;;;;;;15.57;9.57;;;9.80;99.90;;;;;;4955666;29;20086;-75
2023/12/14 04:56:14;;;;;;;13.98;8.45;;;9.70;99.90;;;;;;4973026;29;20049;-76
2023/12/14 04:58:42;;;;;;;11.05;7.47;;;9.60;99.90;;;;;;4964020;29;20047;-76
2023/12/14 05:01:10;;;;;;;10.32;6.15;;;9.70;99.90;;;;;;4956027;29;20059;-75
2023/12/14 05:03:37;;;;;;;11.07;6.38;;;9.70;99.90;;;;;;4957162;29;20130;-75
2023/12/14 05:06:07;;;;;;;13.00;7.45;;;9.70;99.90;;;;;;4955555;29;20061;-76
2023/12/14 05:08:35;;;;;;;16.45;9.32;;;9.80;99.90;;;;;;4970214;29;20047;-76
2023/12/14 05:11:03;;;;;;;18.02;12.18;;;9.90;99.90;;;;;;4975849;29;20053;-73
2023/12/14 05:13:32;;;;;;;17.40;11.57;;;9.90;99.90;;;;;;4975508;28;20052;-76
2023/12/14 05:16:00;;;;;;;16.33;10.48;;;9.90;99.90;;;;;;4958978;29;20138;-77
2023/12/14 05:18:28;;;;;;;15.95;11.18;;;10.00;99.90;;;;;;4940272;29;20051;-75
2023/12/14 05:20:56;;;;;;;16.02;11.20;;;10.00;99.90;;;;;;4938929;29;20074;-75
2023/12/14 05:23:23;;;;;;;18.15;13.05;;;9.90;99.90;;;;;;4939081;29;20075;-78
2023/12/14 05:25:51;;;;;;;16.98;12.48;;;9.90;99.90;;;;;;4956823;29;20118;-81
2023/12/14 05:28:18;;;;;;;24.15;17.00;;;9.80;99.90;;;;;;4956756;29;20078;-76
2023/12/14 05:30:47;;;;;;;19.15;14.52;;;9.80;99.90;;;;;;4956847;29;20113;-79
2023/12/14 05:33:15;;;;;;;20.02;14.82;;;9.80;99.90;;;;;;4956333;29;20500;-78
2023/12/14 05:35:43;;;;;;;19.40;13.90;;;9.90;99.90;;;;;;4955120;29;20525;-78
2023/12/14 05:38:10;;;;;;;20.35;15.38;;;9.90;99.90;;;;;;4936676;29;20047;-77
2023/12/14 05:40:38;;;;;;;21.10;16.55;;;9.80;99.90;;;;;;4961132;29;20065;-76
2023/12/14 05:43:05;;;;;;;23.67;18.08;;;9.80;99.90;;;;;;4975193;29;20042;-75
2023/12/14 05:45:33;;;;;;;24.98;18.00;;;9.80;99.90;;;;;;4966555;29;20054;-78
2023/12/14 05:48:05;;;;;;;28.55;20.50;;;9.80;99.90;;;;;;4956714;29;20039;-75
2023/12/14 05:50:38;;;;;;;24.63;18.35;;;9.70;99.90;;;;;;4957444;29;20047;-77
2023/12/14 05:53:06;;;;;;;27.73;19.17;;;9.70;99.90;;;;;;4955555;29;20058;-76
2023/12/14 05:55:35;;;;;;;23.30;18.60;;;9.70;99.90;;;;;;4956677;29;20035;-76
2023/12/14 05:58:03;;;;;;;26.02;19.27;;;9.70;99.90;;;;;;4965437;29;20047;-76
2023/12/14 06:00:31;;;;;;;29.90;20.90;;;9.70;99.90;;;;;;4937350;29;20116;-75
2023/12/14 06:02:59;;;;;;;27.73;19.65;;;9.80;99.90;;;;;;4955451;29;20139;-76
2023/12/14 06:05:28;;;;;;;30.17;20.75;;;9.70;99.90;;;;;;4956692;29;20067;-76
2023/12/14 06:07:55;;;;;;;68.95;43.55;;;9.80;99.90;;;;;;4938350;29;20043;-76
2023/12/14 06:10:24;;;;;;;73.30;46.33;;;9.80;99.90;;;;;;4940863;29;20427;-75
2023/12/14 06:12:52;;;;;;;74.13;45.85;;;9.70;99.90;;;;;;4955346;29;20043;-78
2023/12/14 06:15:19;;;;;;;76.68;47.13;;;9.70;99.90;;;;;;4955638;29;20091;-77
2023/12/14 06:17:47;;;;;;;74.53;46.25;;;9.80;99.90;;;;;;4954852;29;20039;-79
2023/12/14 06:20:14;;;;;;;83.53;50.17;;;9.80;99.90;;;;;;4955255;29;20051;-76
2023/12/14 06:22:43;;;;;;;59.50;38.72;;;9.80;99.90;;;;;;4937939;29;20047;-76
2023/12/14 06:25:11;;;;;;;48.55;32.22;;;9.80;99.90;;;;;;4954232;29;20047;-75
2023/12/14 06:27:38;;;;;;;34.67;24.73;;;9.80;99.90;;;;;;4953141;29;20039;-78
2023/12/14 06:30:08;;;;;;;28.17;21.30;;;9.70;99.90;;;;;;4953894;29;20043;-77
2023/12/14 06:32:36;;;;;;;32.20;22.60;;;9.80;99.90;;;;;;4952485;29;20459;-78
2023/12/14 06:35:04;;;;;;;29.95;19.48;;;9.80;99.90;;;;;;4937186;29;20054;-76
2023/12/14 06:37:31;;;;;;;24.23;17.85;;;9.80;99.90;;;;;;4937560;29;20059;-77
2023/12/14 06:40:00;;;;;;;29.50;19.63;;;9.80;99.90;;;;;;4954978;29;20047;-77
2023/12/14 06:42:28;;;;;;;28.23;21.17;;;9.90;99.90;;;;;;4954716;29;20551;-78
2023/12/14 06:44:56;;;;;;;30.38;22.52;;;9.80;99.90;;;;;;4952960;29;20043;-76
2023/12/14 06:47:23;;;;;;;35.47;26.25;;;9.80;99.90;;;;;;4945161;29;20480;-74
2023/12/14 06:49:51;;;;;;;38.63;27.23;;;9.80;99.90;;;;;;4925811;29;20044;-75
2023/12/14 06:52:18;;;;;;;38.85;28.83;;;9.90;99.90;;;;;;4944240;29;20041;-77
2023/12/14 06:54:46;;;;;;;42.22;29.42;;;9.90;99.90;;;;;;4945159;29;20130;-79
2023/12/14 06:57:15;;;;;;;44.90;32.13;;;9.80;99.90;;;;;;4927406;29;20150;-78
2023/12/14 06:59:42;;;;;;;55.58;36.17;;;9.80;99.90;;;;;;4926845;29;20055;-78
2023/12/14 07:02:10;;;;;;;56.60;39.22;;;9.80;99.90;;;;;;4944254;29;20051;-75
2023/12/14 07:04:37;;;;;;;59.25;39.80;;;9.90;99.90;;;;;;4940981;29;20047;-76
2023/12/14 07:07:05;;;;;;;66.22;41.63;;;10.00;99.90;;;;;;4961121;29;20136;-74
2023/12/14 07:09:32;;;;;;;56.83;38.25;;;10.10;99.90;;;;;;4942476;29;20052;-76
2023/12/14 07:12:02;;;;;;;53.78;35.15;;;10.10;99.90;;;;;;4943506;29;20047;-76
2023/12/14 07:14:31;;;;;;;61.55;41.83;;;10.20;99.90;;;;;;4948384;29;20078;-75
2023/12/14 07:16:58;;;;;;;59.30;39.83;;;10.20;99.90;;;;;;4975016;28;20023;-74
2023/12/14 07:19:26;;;;;;;53.08;34.35;;;10.30;99.90;;;;;;4932105;29;20459;-76
2023/12/14 07:21:54;;;;;;;45.30;30.50;;;10.40;99.90;;;;;;4947605;29;20039;-79
2023/12/14 07:24:40;;;;;;;36.58;25.30;;;10.40;99.90;;;;;;4943674;29;20142;-75
2023/12/14 07:27:09;;;;;;;;;;;10.40;99.90;;;;;;4953850;29;20043;-78
2023/12/14 07:29:38;;;;;;;41.63;30.40;;;10.30;99.90;;;;;;4942988;29;19953;-76
2023/12/14 07:32:06;;;;;;;45.25;30.50;;;10.30;99.90;;;;;;4944482;29;20150;-78
2023/12/14 07:34:33;;;;;;;41.75;28.30;;;10.20;99.90;;;;;;4924777;29;20143;-77
2023/12/14 07:37:01;;;;;;;46.80;29.00;;;10.20;99.90;;;;;;4927209;29;20503;-78
2023/12/14 07:39:29;;;;;;;48.97;31.85;;;10.20;99.90;;;;;;4924825;29;20416;-76
2023/12/14 07:41:57;;;;;;;45.08;29.38;;;10.20;99.90;;;;;;4927960;29;20047;-77
2023/12/14 07:44:26;;;;;;;46.67;31.30;;;10.20;99.90;;;;;;4942526;29;20089;-77
2023/12/14 07:46:54;;;;;;;53.28;31.80;;;10.20;99.90;;;;;;4950708;28;20850;-78
2023/12/14 07:49:23;;;;;;;50.45;30.88;;;10.30;99.90;;;;;;4953229;29;20074;-79
2023/12/14 07:51:52;;;;;;;45.60;29.05;;;10.30;99.90;;;;;;4953460;29;20035;-78
2023/12/14 07:54:20;;;;;;;48.58;29.98;;;10.40;99.90;;;;;;4935467;29;20095;-76
2023/12/14 07:56:48;;;;;;;51.53;29.05;;;10.40;99.90;;;;;;4935455;29;20074;-75
2023/12/14 07:59:15;;;;;;;48.33;28.23;;;10.40;99.90;;;;;;4951938;29;20031;-78
2023/12/14 08:01:43;;;;;;;52.00;31.10;;;10.40;99.90;;;;;;4970256;28;20051;-75
2023/12/14 08:04:12;;;;;;;45.97;28.52;;;10.50;99.90;;;;;;4959067;28;20047;-76
2023/12/14 08:06:40;;;;;;;41.00;26.50;;;10.50;99.90;;;;;;4964683;29;20043;-79
2023/12/14 08:09:08;;;;;;;47.75;27.85;;;10.50;99.90;;;;;;4957894;29;20055;-75
2023/12/14 08:11:35;;;;;;;50.92;27.95;;;10.50;99.90;;;;;;4953608;29;20051;-74
2023/12/14 08:14:04;;;;;;;43.42;27.73;;;10.60;99.90;;;;;;4962212;29;20039;-75
2023/12/14 08:16:31;;;;;;;54.83;32.20;;;10.60;99.90;;;;;;4947956;29;20075;-74
2023/12/14 08:18:59;;;;;;;49.50;29.50;;;10.60;99.90;;;;;;4967921;29;20383;-75
2023/12/14 08:21:28;;;;;;;50.13;30.73;;;10.60;99.90;;;;;;4939289;29;20074;-75
2023/12/14 08:23:56;;;;;;;41.22;26.88;;;10.70;99.90;;;;;;4954517;29;20039;-75
2023/12/14 08:26:23;;;;;;;43.65;26.88;;;10.70;99.90;;;;;;4938283;29;20048;-74
2023/12/14 08:28:51;;;;;;;44.97;29.48;;;10.60;99.90;;;;;;4935858;29;20538;-75
2023/12/14 08:31:18;;;;;;;47.83;27.98;;;10.70;99.90;;;;;;4952679;29;20063;-74
2023/12/14 08:33:46;;;;;;;42.20;27.45;;;10.70;99.90;;;;;;4953697;29;20492;-75
2023/12/14 08:36:17;;;;;;;42.15;23.35;;;10.70;99.90;;;;;;4949448;29;20055;-75
2023/12/14 08:38:46;;;;;;;39.22;22.80;;;10.70;99.90;;;;;;4944546;29;20055;-74
2023/12/14 08:41:14;;;;;;;34.85;23.85;;;10.70;99.90;;;;;;4958365;29;20090;-75
2023/12/14 08:43:41;;;;;;;38.28;23.20;;;10.70;99.90;;;;;;4957411;29;20074;-75
2023/12/14 08:46:09;;;;;;;31.73;21.83;;;10.80;99.90;;;;;;4959873;29;20047;-73
2023/12/14 08:48:37;;;;;;;36.00;23.45;;;10.70;99.90;;;;;;4937085;29;20043;-76
2023/12/14 08:51:05;;;;;;;37.22;25.00;;;10.60;99.90;;;;;;4936591;29;20079;-75
2023/12/14 08:53:33;;;;;;;34.28;22.90;;;10.60;99.90;;;;;;4954299;29;20043;-77
2023/12/14 08:56:02;;;;;;;36.65;23.98;;;10.60;99.90;;;;;;4937046;29;20083;-76
2023/12/14 08:58:30;;;;;;;31.80;23.13;;;10.60;99.90;;;;;;4934801;29;20051;-73
2023/12/14 09:00:58;;;;;;;30.95;21.23;;;10.60;99.90;;;;;;4935830;29;20047;-74
2023/12/14 09:03:26;;;;;;;29.70;21.35;;;10.60;99.90;;;;;;4953051;29;20043;-74
2023/12/14 09:05:53;;;;;;;27.67;20.42;;;10.60;99.90;;;;;;4936281;29;20067;-76
2023/12/14 09:08:21;;;;;;;28.23;19.42;;;10.60;99.90;;;;;;4939087;29;20043;-75
2023/12/14 09:10:55;;;;;;;29.80;20.58;;;10.60;99.90;;;;;;4961449;29;20054;-74
2023/12/14 09:13:24;;;;;;;28.27;18.40;;;10.60;99.90;;;;;;4957577;28;20475;-74
2023/12/14 09:15:53;;;;;;;26.67;18.88;;;10.70;99.90;;;;;;4960061;29;20055;-75
2023/12/14 09:18:22;;;;;;;25.40;17.90;;;10.80;99.90;;;;;;4958934;29;20043;-76
2023/12/14 09:20:50;;;;;;;28.95;18.88;;;10.80;99.90;;;;;;4958367;29;20110;-78
2023/12/14 09:23:19;;;;;;;32.45;21.92;;;10.90;99.90;;;;;;4938578;29;20051;-76
2023/12/14 09:25:46;;;;;;;34.40;21.33;;;10.90;99.90;;;;;;4957017;29;20047;-74
2023/12/14 09:28:14;;;;;;;29.58;19.02;;;10.90;99.90;;;;;;4957892;29;20043;-74
2023/12/14 09:30:44;;;;;;;32.90;21.15;;;10.90;99.90;;;;;;4940701;29;20052;-74
2023/12/14 09:33:12;;;;;;;26.67;19.45;;;11.00;99.90;;;;;;4939699;29;20047;-78
2023/12/14 09:35:41;;;;;;;27.63;19.33;;;10.90;99.90;;;;;;4940119;29;20094;-74
2023/12/14 09:38:08;;;;;;;27.98;19.42;;;11.00;99.90;;;;;;4939198;29;20059;-78
2023/12/14 09:40:36;;;;;;;31.20;19.23;;;11.10;99.90;;;;;;4954541;29;20156;-78
2023/12/14 09:43:03;;;;;;;42.50;27.00;;;11.10;99.90;;;;;;4938914;29;20102;-78
2023/12/14 09:45:31;;;;;;;42.25;26.52;;;11.10;99.90;;;;;;4956608;29;20445;-75
2023/12/14 09:48:02;;;;;;;34.80;21.45;;;11.10;99.90;;;;;;4956117;28;20043;-80
2023/12/14 09:50:31;;;;;;;30.63;20.15;;;11.20;99.90;;;;;;4957368;29;20048;-76
2023/12/14 09:52:58;;;;;;;27.60;19.15;;;11.20;99.90;;;;;;4943642;29;20051;-77
2023/12/14 09:55:27;;;;;;;29.92;20.70;;;11.10;99.90;;;;;;4957993;29;20067;-78
2023/12/14 09:57:55;;;;;;;30.38;18.98;;;11.10;99.90;;;;;;4954281;29;20059;-78
2023/12/14 10:00:39;;;;;;;31.98;21.38;;;11.10;99.90;;;;;;4938677;29;20069;-80
2023/12/14 10:03:26;;;;;;;29.80;20.55;;;11.00;99.90;;;;;;4950967;29;20059;-76
2023/12/14 10:05:54;;;;;;;30.20;21.17;;;11.00;99.90;;;;;;4939177;29;20055;-77
2023/12/14 10:08:22;;;;;;;34.35;21.55;;;10.90;99.90;;;;;;4935219;29;20152;-75
2023/12/14 10:10:52;;;;;;;31.95;20.23;;;10.80;99.90;;;;;;4937266;29;20047;-77
2023/12/14 10:13:21;;;;;;;29.08;21.90;;;10.70;99.90;;;;;;4951684;29;20040;-78
2023/12/14 10:15:49;;;;;;;30.77;22.13;;;10.70;99.90;;;;;;4938115;29;20106;-75
2023/12/14 10:18:25;;;;;;;31.58;24.00;;;10.70;99.90;;;;;;4938629;29;20047;-75
2023/12/14 10:20:53;;;;;;;40.15;22.40;;;10.70;99.90;;;;;;4954513;29;20043;-77
2023/12/14 10:23:21;;;;;;;28.52;20.67;;;10.70;99.90;;;;;;4937869;29;20051;-75
2023/12/14 10:25:48;;;;;;;24.70;15.95;;;10.70;99.90;;;;;;4954359;29;20047;-75
2023/12/14 10:28:16;;;;;;;26.40;17.90;;;10.60;99.90;;;;;;4967949;29;20079;-76
2023/12/14 10:30:43;;;;;;;25.00;18.13;;;10.60;99.90;;;;;;4954615;29;20043;-75
2023/12/14 10:33:14;;;;;;;26.02;17.10;;;10.60;99.90;;;;;;4939145;29;20058;-76
2023/12/14 10:35:45;;;;;;;24.05;15.75;;;10.50;99.90;;;;;;4937722;29;20047;-75
2023/12/14 10:38:18;;;;;;;20.17;14.43;;;10.50;99.90;;;;;;4954289;29;20073;-76
2023/12/14 10:40:46;;;;;;;20.23;13.18;;;10.30;99.90;;;;;;4960230;29;20050;-75
2023/12/14 10:43:15;;;;;;;21.48;11.50;;;10.30;99.90;;;;;;4960076;29;20142;-77
2023/12/14 10:45:47;;;;;;;17.90;12.20;;;10.40;99.90;;;;;;4949088;29;20067;-78
2023/12/14 10:48:15;;;;;;;19.73;12.73;;;10.50;99.90;;;;;;4967242;28;20102;-77
2023/12/14 10:50:44;;;;;;;15.98;10.48;;;10.60;99.90;;;;;;4952481;29;20052;-78
2023/12/14 10:53:13;;;;;;;16.30;11.18;;;10.60;99.90;;;;;;4975980;28;20223;-77
2023/12/14 10:55:44;;;;;;;14.48;11.20;;;10.70;99.90;;;;;;4948682;29;20051;-76
2023/12/14 10:58:12;;;;;;;17.00;11.75;;;10.70;99.90;;;;;;4937330;29;20051;-76
2023/12/14 11:00:40;;;;;;;20.50;11.25;;;10.60;99.90;;;;;;4936323;29;20035;-74
2023/12/14 11:03:08;;;;;;;16.35;10.82;;;10.70;99.90;;;;;;4952796;29;20205;-76
2023/12/14 11:05:36;;;;;;;19.85;12.93;;;10.70;99.90;;;;;;4937833;29;20047;-75
2023/12/14 11:08:09;;;;;;;26.70;12.45;;;10.70;99.90;;;;;;4937693;29;20047;-77
2023/12/14 11:10:41;;;;;;;20.00;12.55;;;10.80;99.90;;;;;;4954433;29;20043;-77
2023/12/14 11:13:12;;;;;;;21.02;12.20;;;10.90;99.90;;;;;;4952754;29;20069;-79
2023/12/14 11:15:40;;;;;;;16.38;10.82;;;10.90;99.90;;;;;;4937942;29;20044;-77
2023/12/14 11:18:25;;;;;;;21.73;10.35;;;10.90;99.90;;;;;;4937403;29;20039;-75
2023/12/14 11:20:56;;;;;;;18.63;10.73;;;10.80;99.90;;;;;;4952603;29;20054;-76
2023/12/14 11:23:33;;;;;;;30.23;17.45;;;10.80;99.90;;;;;;4953266;29;20504;-76
2023/12/14 11:26:04;;;;;;;23.15;12.27;;;10.90;99.90;;;;;;4952855;29;20502;-75
2023/12/14 11:28:32;;;;;;;25.52;16.00;;;10.80;99.90;;;;;;4952389;29;20059;-78
2023/12/14 11:31:01;;;;;;;23.13;13.85;;;10.80;99.90;;;;;;4953926;29;20114;-75
2023/12/14 11:33:29;;;;;;;24.23;13.30;;;10.80;99.90;;;;;;4935698;29;20067;-74
2023/12/14 11:35:57;;;;;;;23.85;12.85;;;10.80;99.90;;;;;;4934193;29;20051;-76
2023/12/14 11:38:26;;;;;;;26.48;13.50;;;10.80;99.90;;;;;;4954992;29;20051;-75
2023/12/14 11:41:04;;;;;;;24.08;13.48;;;10.90;99.90;;;;;;4937924;29;20111;-74
2023/12/14 11:43:41;;;;;;;20.48;13.07;;;10.80;99.90;;;;;;4953698;29;20228;-76
2023/12/14 11:46:09;;;;;;;21.63;13.38;;;11.10;99.90;;;;;;4950559;28;20472;-75
2023/12/14 11:48:37;;;;;;;18.98;12.07;;;11.10;99.90;;;;;;4940084;29;20052;-77
2023/12/14 11:51:08;;;;;;;14.02;9.80;;;11.20;99.90;;;;;;4938742;29;20047;-75
2023/12/14 11:53:43;;;;;;;12.73;7.93;;;11.40;99.90;;;;;;4942595;29;20059;-79
2023/12/14 11:56:12;;;;;;;16.77;10.20;;;11.40;99.90;;;;;;4950168;29;20083;-77
2023/12/14 11:58:43;;;;;;;14.70;8.70;;;11.40;99.90;;;;;;4948327;29;20079;-79
2023/12/14 12:01:15;;;;;;;11.23;6.90;;;11.40;99.90;;;;;;4953834;29;20054;-76
2023/12/14 12:03:43;;;;;;;9.93;5.30;;;11.40;99.90;;;;;;4969927;29;20055;-74
2023/12/14 12:06:22;;;;;;;9.10;5.18;;;11.40;99.90;;;;;;4970638;29;20070;-75
2023/12/14 12:10:04;;;;;;;8.10;5.20;;;11.50;99.90;;;;;;4951071;29;20111;-77
2023/12/14 12:16:25;;;;;;;9.63;6.38;;;11.60;99.90;;;;;;4915278;29;20057;-76
2023/12/14 12:18:53;;;;;;;17.35;11.70;;;11.70;99.90;;;;;;4955839;29;20109;-76
2023/12/14 12:21:23;;;;;;;17.00;11.68;;;11.80;99.90;;;;;;4956355;29;20176;-76
2023/12/14 12:23:52;;;;;;;18.50;11.80;;;11.80;99.90;;;;;;4953498;29;20047;-76
2023/12/14 12:26:19;;;;;;;19.48;13.55;;;11.90;99.90;;;;;;4952337;29;20088;-75
2023/12/14 12:28:52;;;;;;;23.48;14.52;;;11.90;99.90;;;;;;4938655;29;20150;-76
2023/12/14 12:31:20;;;;;;;25.13;16.17;;;11.80;99.90;;;;;;4934740;29;20043;-75
2023/12/14 12:33:50;;;;;;;22.92;16.23;;;11.80;99.90;;;;;;4939896;29;20067;-75
2023/12/14 12:36:18;;;;;;;23.33;16.38;;;11.80;99.90;;;;;;4947137;29;20055;-77
2023/12/14 12:38:47;;;;;;;22.80;15.77;;;11.80;99.90;;;;;;4953140;29;20047;-77
2023/12/14 12:41:15;;;;;;;24.60;16.08;;;11.80;99.90;;;;;;4952286;29;20039;-76
2023/12/14 12:43:43;;;;;;;23.20;14.77;;;11.70;99.90;;;;;;4952232;29;20075;-77
2023/12/14 12:46:12;;;;;;;21.27;15.32;;;11.60;99.90;;;;;;4953320;29;20054;-76